sensor_id;sensor_type;location;lat;lon;timestamp;pressure;altitude;pressure_sealevel;temperature;humidity
78825;BME280;68176;45.554;10.220;2023-07-09T00:01:47;100378.72;;;25.59;50.60
78825;BME280;68176;45.554;10.220;2023-07-09T00:04:17;100385.75;;;25.47;52.05
78825;BME280;68176;45.554;10.220;2023-07-09T00:06:46;100363.78;;;25.25;53.52
78825;BME280;68176;45.554;10.220;2023-07-09T00:09:22;100368.94;;;25.33;53.38
78825;BME280;68176;45.554;10.220;2023-07-09T00:11:51;100385.81;;;25.40;53.81
78825;BME280;68176;45.554;10.220;2023-07-09T00:14:27;100383.41;;;25.26;56.66
78825;BME280;68176;45.554;10.220;2023-07-09T00:17:07;100380.22;;;25.04;54.71
78825;BME280;68176;45.554;10.220;2023-07-09T00:19:36;100372.44;;;25.34;53.01
78825;BME280;68176;45.554;10.220;2023-07-09T00:22:14;100369.66;;;25.09;53.38
78825;BME280;68176;45.554;10.220;2023-07-09T00:24:51;100362.19;;;25.18;53.24
78825;BME280;68176;45.554;10.220;2023-07-09T00:27:22;100362.72;;;25.33;52.87
78825;BME280;68176;45.554;10.220;2023-07-09T00:29:59;100355.72;;;25.25;53.24
78825;BME280;68176;45.554;10.220;2023-07-09T00:32:30;100369.53;;;25.35;52.53
78825;BME280;68176;45.554;10.220;2023-07-09T00:34:55;100362.50;;;25.34;51.95
78825;BME280;68176;45.554;10.220;2023-07-09T00:37:26;100358.00;;;25.28;52.43
78825;BME280;68176;45.554;10.220;2023-07-09T00:40:03;100358.44;;;25.19;53.12
78825;BME280;68176;45.554;10.220;2023-07-09T00:42:42;100346.13;;;25.11;53.28
78825;BME280;68176;45.554;10.220;2023-07-09T00:45:26;100356.59;;;25.19;53.27
78825;BME280;68176;45.554;10.220;2023-07-09T00:48:04;100346.72;;;25.13;53.62
78825;BME280;68176;45.554;10.220;2023-07-09T00:50:45;100357.44;;;25.13;53.61
78825;BME280;68176;45.554;10.220;2023-07-09T00:53:27;100342.19;;;25.07;53.44
78825;BME280;68176;45.554;10.220;2023-07-09T00:56:08;100352.69;;;25.15;53.25
78825;BME280;68176;45.554;10.220;2023-07-09T00:58:46;100346.28;;;25.16;52.87
78825;BME280;68176;45.554;10.220;2023-07-09T01:01:16;100346.66;;;25.26;52.13
78825;BME280;68176;45.554;10.220;2023-07-09T01:03:49;100352.56;;;24.97;53.11
78825;BME280;68176;45.554;10.220;2023-07-09T01:06:34;100350.94;;;24.96;53.13
78825;BME280;68176;45.554;10.220;2023-07-09T01:09:02;100360.00;;;24.95;53.83
78825;BME280;68176;45.554;10.220;2023-07-09T01:11:39;100344.94;;;24.94;53.23
78825;BME280;68176;45.554;10.220;2023-07-09T01:14:10;100362.88;;;25.00;53.17
78825;BME280;68176;45.554;10.220;2023-07-09T01:17:06;100355.44;;;25.02;53.18
78825;BME280;68176;45.554;10.220;2023-07-09T01:19:51;100354.81;;;25.00;53.21
78825;BME280;68176;45.554;10.220;2023-07-09T01:22:22;100345.38;;;24.91;53.10
78825;BME280;68176;45.554;10.220;2023-07-09T01:25:07;100350.16;;;24.82;53.25
78825;BME280;68176;45.554;10.220;2023-07-09T01:27:42;100362.50;;;24.90;53.52
78825;BME280;68176;45.554;10.220;2023-07-09T01:30:40;100353.41;;;24.91;53.14
78825;BME280;68176;45.554;10.220;2023-07-09T01:33:09;100350.34;;;24.87;53.10
78825;BME280;68176;45.554;10.220;2023-07-09T01:35:39;100354.44;;;24.90;52.92
78825;BME280;68176;45.554;10.220;2023-07-09T01:38:09;100354.03;;;24.93;53.10
78825;BME280;68176;45.554;10.220;2023-07-09T01:40:34;100366.66;;;24.86;53.41
78825;BME280;68176;45.554;10.220;2023-07-09T01:43:05;100358.38;;;24.81;53.93
78825;BME280;68176;45.554;10.220;2023-07-09T01:45:49;100370.38;;;24.85;53.50
78825;BME280;68176;45.554;10.220;2023-07-09T01:48:18;100366.25;;;24.82;53.52
78825;BME280;68176;45.554;10.220;2023-07-09T01:50:50;100378.84;;;24.82;53.22
78825;BME280;68176;45.554;10.220;2023-07-09T01:53:21;100343.53;;;24.72;53.35
78825;BME280;68176;45.554;10.220;2023-07-09T06:00:28;100413.41;;;26.23;48.46
78825;BME280;68176;45.554;10.220;2023-07-09T11:09:24;100385.31;;;30.17;41.77
78825;BME280;68176;45.554;10.220;2023-07-09T11:52:07;100368.06;;;30.56;40.50
78825;BME280;68176;45.554;10.220;2023-07-09T11:54:44;100352.50;;;30.90;41.57
78825;BME280;68176;45.554;10.220;2023-07-09T12:21:40;100332.41;;;31.30;38.28
78825;BME280;68176;45.554;10.220;2023-07-09T12:24:48;100342.19;;;31.57;37.92
78825;BME280;68176;45.554;10.220;2023-07-09T12:30:16;100341.66;;;31.60;38.60
78825;BME280;68176;45.554;10.220;2023-07-09T12:33:36;100336.75;;;31.57;39.20
78825;BME280;68176;45.554;10.220;2023-07-09T12:48:19;100330.25;;;32.27;35.23
78825;BME280;68176;45.554;10.220;2023-07-09T13:09:47;100300.66;;;32.88;34.16
78825;BME280;68176;45.554;10.220;2023-07-09T13:33:26;100283.91;;;34.17;29.82
78825;BME280;68176;45.554;10.220;2023-07-09T13:39:02;100280.69;;;33.85;32.52
78825;BME280;68176;45.554;10.220;2023-07-09T13:50:51;100262.03;;;34.47;32.13
78825;BME280;68176;45.554;10.220;2023-07-09T13:53:27;100283.66;;;34.88;30.66
78825;BME280;68176;45.554;10.220;2023-07-09T13:59:28;100269.38;;;35.45;30.46
78825;BME280;68176;45.554;10.220;2023-07-09T14:02:17;100265.50;;;35.51;29.54
78825;BME280;68176;45.554;10.220;2023-07-09T14:05:25;100282.53;;;35.71;30.68
78825;BME280;68176;45.554;10.220;2023-07-09T14:10:44;100274.50;;;36.14;30.21
78825;BME280;68176;45.554;10.220;2023-07-09T14:13:23;100266.38;;;36.04;28.58
78825;BME280;68176;45.554;10.220;2023-07-09T14:15:59;100272.50;;;35.96;29.63
78825;BME280;68176;45.554;10.220;2023-07-09T14:18:28;100274.56;;;36.09;30.33
78825;BME280;68176;45.554;10.220;2023-07-09T14:21:12;100267.22;;;36.28;30.51
78825;BME280;68176;45.554;10.220;2023-07-09T14:23:39;100265.06;;;36.49;30.15
78825;BME280;68176;45.554;10.220;2023-07-09T14:26:08;100279.03;;;36.47;30.61
78825;BME280;68176;45.554;10.220;2023-07-09T14:28:37;100275.16;;;36.53;29.78
78825;BME280;68176;45.554;10.220;2023-07-09T14:31:29;100259.84;;;36.05;30.71
78825;BME280;68176;45.554;10.220;2023-07-09T14:34:15;100265.84;;;36.54;29.94
78825;BME280;68176;45.554;10.220;2023-07-09T14:36:48;100262.88;;;36.27;29.95
78825;BME280;68176;45.554;10.220;2023-07-09T14:39:19;100255.84;;;36.21;30.52
78825;BME280;68176;45.554;10.220;2023-07-09T14:41:45;100262.41;;;36.67;29.66
78825;BME280;68176;45.554;10.220;2023-07-09T14:44:59;100262.13;;;36.87;29.82
78825;BME280;68176;45.554;10.220;2023-07-09T14:50:19;100267.38;;;37.21;28.68
78825;BME280;68176;45.554;10.220;2023-07-09T14:52:46;100249.06;;;37.03;28.86
78825;BME280;68176;45.554;10.220;2023-07-09T14:55:17;100245.13;;;36.91;28.34
78825;BME280;68176;45.554;10.220;2023-07-09T14:57:45;100238.44;;;37.34;27.51
78825;BME280;68176;45.554;10.220;2023-07-09T15:00:43;100239.06;;;36.94;26.58
78825;BME280;68176;45.554;10.220;2023-07-09T15:03:45;100249.25;;;37.07;27.85
78825;BME280;68176;45.554;10.220;2023-07-09T15:06:16;100244.19;;;37.51;27.40
78825;BME280;68176;45.554;10.220;2023-07-09T15:08:46;100246.50;;;37.44;27.48
78825;BME280;68176;45.554;10.220;2023-07-09T15:11:17;100233.28;;;37.65;27.23
78825;BME280;68176;45.554;10.220;2023-07-09T15:13:53;100227.63;;;37.75;26.52
78825;BME280;68176;45.554;10.220;2023-07-09T15:16:19;100229.31;;;37.71;27.45
78825;BME280;68176;45.554;10.220;2023-07-09T15:18:53;100232.66;;;37.68;26.96
78825;BME280;68176;45.554;10.220;2023-07-09T15:21:33;100225.13;;;38.06;26.77
78825;BME280;68176;45.554;10.220;2023-07-09T15:24:16;100224.50;;;38.09;27.33
78825;BME280;68176;45.554;10.220;2023-07-09T15:26:48;100225.56;;;37.53;25.65
78825;BME280;68176;45.554;10.220;2023-07-09T15:29:23;100210.41;;;37.10;25.73
78825;BME280;68176;45.554;10.220;2023-07-09T15:31:54;100211.94;;;37.16;27.09
78825;BME280;68176;45.554;10.220;2023-07-09T15:34:20;100223.13;;;37.65;25.94
78825;BME280;68176;45.554;10.220;2023-07-09T15:36:50;100222.94;;;37.89;26.49
78825;BME280;68176;45.554;10.220;2023-07-09T15:42:34;100213.22;;;38.24;26.57
78825;BME280;68176;45.554;10.220;2023-07-09T15:45:30;100217.47;;;38.30;25.77
78825;BME280;68176;45.554;10.220;2023-07-09T15:48:05;100214.88;;;38.25;25.77
78825;BME280;68176;45.554;10.220;2023-07-09T15:54:00;100208.16;;;38.31;25.99
78825;BME280;68176;45.554;10.220;2023-07-09T16:00:33;100208.34;;;38.34;27.01
78825;BME280;68176;45.554;10.220;2023-07-09T16:03:08;100197.72;;;38.19;27.52
78825;BME280;68176;45.554;10.220;2023-07-09T16:05:46;100193.75;;;38.12;26.53
78825;BME280;68176;45.554;10.220;2023-07-09T16:08:20;100193.97;;;38.02;26.70
78825;BME280;68176;45.554;10.220;2023-07-09T16:10:49;100187.09;;;38.04;27.36
78825;BME280;68176;45.554;10.220;2023-07-09T16:13:29;100203.06;;;37.83;28.07
78825;BME280;68176;45.554;10.220;2023-07-09T16:16:11;100189.28;;;37.88;28.00
